Time;durP1;ratioP1;P1;durP2;ratioP2;P2;SDS_P1;SDS_P2;PMS_P1;PMS_P2;Temp;Humidity;BMP_temperature;BMP_pressure;BME280_temperature;BME280_humidity;BME280_pressure;Samples;Min_cycle;Max_cycle;Signal;HPM_P1;HPM_P2
2022/11/14 00:00:54;;;;;;;3.60;3.30;;;20.80;63.40;;;;;;4986365;28;20475;-68
2022/11/14 00:03:40;;;;;;;3.90;3.57;;;20.80;63.40;;;;;;4986164;28;20443;-66
2022/11/14 00:06:27;;;;;;;3.90;3.50;;;20.80;63.40;;;;;;4989272;28;20456;-68
2022/11/14 00:09:13;;;;;;;3.87;3.57;;;20.80;63.20;;;;;;4989620;28;20978;-69
2022/11/14 00:12:00;;;;;;;3.77;3.47;;;20.80;63.40;;;;;;4980367;28;20474;-69
2022/11/14 00:14:47;;;;;;;4.20;3.90;;;20.80;63.30;;;;;;4986563;28;20449;-69
2022/11/14 00:17:35;;;;;;;3.50;3.30;;;20.80;63.40;;;;;;4989334;28;20447;-70
2022/11/14 00:20:21;;;;;;;3.77;3.47;;;20.80;63.40;;;;;;4981639;28;20789;-69
2022/11/14 00:23:08;;;;;;;3.50;3.20;;;20.80;63.40;;;;;;4982616;28;20479;-68
2022/11/14 00:25:54;;;;;;;3.80;3.50;;;20.80;63.50;;;;;;4984245;28;20533;-68
2022/11/14 00:28:41;;;;;;;3.30;3.10;;;20.80;63.50;;;;;;4980602;28;20449;-68
2022/11/14 00:31:27;;;;;;;4.37;3.97;;;20.80;63.50;;;;;;4991602;28;20470;-70
2022/11/14 00:34:15;;;;;;;3.93;3.63;;;20.80;63.50;;;;;;4989936;28;20515;-69
2022/11/14 00:37:02;;;;;;;3.93;3.37;;;20.80;63.50;;;;;;4989732;28;20459;-69
2022/11/14 00:39:49;;;;;;;3.47;3.20;;;20.80;63.40;;;;;;4986636;28;20466;-69
2022/11/14 00:42:35;;;;;;;4.57;4.23;;;20.80;63.40;;;;;;4989786;28;20526;-69
2022/11/14 00:45:22;;;;;;;4.17;3.77;;;20.80;63.30;;;;;;4969792;28;20445;-69
2022/11/14 00:48:08;;;;;;;3.30;3.10;;;20.80;63.10;;;;;;4970836;28;20624;-69
2022/11/14 00:50:56;;;;;;;3.87;3.57;;;20.80;63.40;;;;;;4970116;28;20465;-69
2022/11/14 00:53:43;;;;;;;3.80;3.50;;;20.80;63.50;;;;;;4969546;28;20543;-69
2022/11/14 00:56:29;;;;;;;3.40;3.10;;;20.80;63.50;;;;;;4967061;28;20961;-69
2022/11/14 00:59:16;;;;;;;3.23;2.87;;;20.80;63.40;;;;;;4969646;28;20905;-68
2022/11/14 01:02:02;;;;;;;4.00;3.70;;;20.80;63.40;;;;;;4971015;28;20457;-69
2022/11/14 01:04:49;;;;;;;3.60;3.30;;;20.80;63.50;;;;;;4972510;28;20481;-70
2022/11/14 01:07:37;;;;;;;3.33;3.03;;;20.80;63.50;;;;;;4966667;28;20487;-69
2022/11/14 01:10:24;;;;;;;3.53;3.23;;;20.80;63.50;;;;;;4971417;28;20523;-69
2022/11/14 01:13:11;;;;;;;3.80;3.50;;;20.80;63.60;;;;;;4969411;28;20628;-70
2022/11/14 01:16:01;;;;;;;3.20;2.93;;;20.80;63.60;;;;;;4972990;28;20801;-69
2022/11/14 01:18:47;;;;;;;3.30;3.10;;;20.80;63.60;;;;;;4973889;28;20898;-69
2022/11/14 01:21:34;;;;;;;2.80;2.70;;;20.80;63.60;;;;;;4966655;28;20560;-69
2022/11/14 01:24:22;;;;;;;3.23;3.03;;;20.80;63.60;;;;;;4966631;28;20499;-68
2022/11/14 01:27:09;;;;;;;3.33;3.03;;;20.80;63.60;;;;;;4973738;28;20459;-68
2022/11/14 01:29:55;;;;;;;3.20;3.00;;;20.80;63.60;;;;;;4968147;28;20539;-69
2022/11/14 01:32:42;;;;;;;3.10;2.83;;;20.80;63.60;;;;;;4971678;28;20824;-69
2022/11/14 01:35:28;;;;;;;5.23;3.00;;;20.80;63.70;;;;;;4967077;28;20438;-70
2022/11/14 01:38:15;;;;;;;3.20;2.90;;;20.80;63.70;;;;;;4975593;28;20814;-69
2022/11/14 01:41:04;;;;;;;3.70;3.33;;;20.80;63.70;;;;;;4975792;28;20454;-70
2022/11/14 01:43:50;;;;;;;4.60;4.20;;;20.80;63.70;;;;;;4972453;28;20492;-69
2022/11/14 01:46:40;;;;;;;3.00;2.80;;;20.80;63.70;;;;;;4995354;28;20455;-69
2022/11/14 01:49:34;;;;;;;3.33;3.13;;;20.80;63.70;;;;;;4986708;28;21055;-69
2022/11/14 01:52:25;;;;;;;3.37;3.10;;;20.80;63.70;;;;;;4989952;28;20837;-68
2022/11/14 01:55:11;;;;;;;3.40;3.20;;;20.80;63.70;;;;;;4993018;28;20518;-69
2022/11/14 01:58:00;;;;;;;3.30;3.00;;;20.80;63.70;;;;;;4994557;28;20498;-68
2022/11/14 02:00:46;;;;;;;3.07;2.87;;;20.80;63.70;;;;;;4988143;28;20503;-69
2022/11/14 02:03:35;;;;;;;3.13;2.90;;;20.80;63.80;;;;;;4990580;28;20497;-68
2022/11/14 02:06:25;;;;;;;3.13;2.93;;;20.80;63.80;;;;;;4989397;28;20452;-69
2022/11/14 02:09:12;;;;;;;3.40;3.10;;;20.80;63.80;;;;;;4988825;28;20452;-69
2022/11/14 02:12:01;;;;;;;3.37;3.07;;;20.80;63.80;;;;;;4993541;28;20494;-68
2022/11/14 02:14:52;;;;;;;3.20;3.00;;;20.80;63.80;;;;;;4994786;28;20804;-70
2022/11/14 02:17:40;;;;;;;2.80;2.60;;;20.80;63.80;;;;;;4992004;28;20435;-69
2022/11/14 02:20:31;;;;;;;2.50;2.40;;;20.80;63.80;;;;;;4990847;28;20541;-69
2022/11/14 02:23:26;;;;;;;2.83;2.63;;;20.80;63.80;;;;;;4994741;28;21378;-69
2022/11/14 02:26:15;;;;;;;4.13;3.30;;;20.80;63.80;;;;;;4984866;28;20488;-69
2022/11/14 02:29:02;;;;;;;3.10;2.90;;;20.80;63.80;;;;;;4989746;28;20454;-69
2022/11/14 02:31:48;;;;;;;3.03;2.83;;;20.80;63.80;;;;;;4993694;28;20459;-68
2022/11/14 02:34:35;;;;;;;3.20;3.00;;;20.70;63.80;;;;;;4994357;28;20978;-69
2022/11/14 02:37:23;;;;;;;3.47;3.17;;;20.70;63.60;;;;;;4991244;28;20547;-68
2022/11/14 02:40:11;;;;;;;3.17;2.87;;;20.70;63.80;;;;;;4993446;28;20463;-69
2022/11/14 02:42:58;;;;;;;2.80;2.60;;;20.70;63.80;;;;;;4987416;28;20499;-69
2022/11/14 02:45:44;;;;;;;3.60;3.30;;;20.70;63.80;;;;;;4981614;28;20790;-69
2022/11/14 02:48:30;;;;;;;2.60;2.40;;;20.70;63.90;;;;;;4986222;28;20486;-69
2022/11/14 02:51:17;;;;;;;2.77;2.57;;;20.70;63.80;;;;;;4984567;28;20501;-69
2022/11/14 02:54:05;;;;;;;3.13;2.83;;;20.70;63.80;;;;;;4986098;28;20466;-70
2022/11/14 02:56:52;;;;;;;2.30;2.13;;;20.70;63.80;;;;;;4994518;28;20822;-69
2022/11/14 02:59:39;;;;;;;2.97;2.83;;;20.70;63.80;;;;;;4987757;28;20444;-70
2022/11/14 03:02:25;;;;;;;3.10;2.90;;;20.70;63.90;;;;;;4986536;28;20860;-69
2022/11/14 03:05:12;;;;;;;3.00;2.80;;;20.70;63.90;;;;;;4993450;28;20815;-70
2022/11/14 03:07:59;;;;;;;2.80;2.60;;;20.70;63.90;;;;;;4990577;28;20451;-70
2022/11/14 03:10:47;;;;;;;2.70;2.50;;;20.70;63.90;;;;;;4985393;28;20616;-68
2022/11/14 03:13:34;;;;;;;3.10;2.90;;;20.70;63.90;;;;;;4992061;28;20900;-68
2022/11/14 03:16:21;;;;;;;2.83;2.63;;;20.70;63.90;;;;;;4983473;28;20943;-69
2022/11/14 03:19:07;;;;;;;2.77;2.57;;;20.70;63.90;;;;;;4990078;28;20495;-69
2022/11/14 03:21:54;;;;;;;2.60;2.50;;;20.70;63.90;;;;;;4988284;28;20440;-69
2022/11/14 03:24:40;;;;;;;2.80;2.53;;;20.70;63.90;;;;;;4993537;28;20507;-72
2022/11/14 03:27:28;;;;;;;2.90;2.70;;;20.70;63.90;;;;;;4987919;28;20999;-69
2022/11/14 03:30:15;;;;;;;2.63;2.53;;;20.70;63.90;;;;;;4991252;28;20455;-68
2022/11/14 03:33:02;;;;;;;2.90;2.70;;;20.70;63.90;;;;;;4989772;28;20474;-70
2022/11/14 03:35:49;;;;;;;3.30;3.10;;;20.70;64.00;;;;;;4991063;28;20452;-69
2022/11/14 03:38:36;;;;;;;2.90;2.70;;;20.70;63.90;;;;;;4992075;28;20535;-69
2022/11/14 03:41:22;;;;;;;3.00;2.80;;;20.70;64.00;;;;;;4990586;28;20447;-69
2022/11/14 03:44:10;;;;;;;3.47;3.17;;;20.70;64.00;;;;;;4991158;28;20539;-69
2022/11/14 03:46:57;;;;;;;3.33;3.13;;;20.70;64.00;;;;;;4992722;28;20486;-68
2022/11/14 03:49:44;;;;;;;2.50;2.30;;;20.70;64.00;;;;;;4988071;28;20455;-69
2022/11/14 03:52:31;;;;;;;2.70;2.50;;;20.70;64.00;;;;;;4983724;28;20521;-70
2022/11/14 03:55:17;;;;;;;2.90;2.70;;;20.70;64.00;;;;;;4991882;28;20978;-68
2022/11/14 03:58:04;;;;;;;2.70;2.50;;;20.70;64.00;;;;;;4989683;28;20444;-69
2022/11/14 04:00:52;;;;;;;3.10;2.80;;;20.70;64.10;;;;;;4984901;28;20519;-69
2022/11/14 04:03:39;;;;;;;2.33;2.23;;;20.70;64.10;;;;;;4986173;28;20436;-69
2022/11/14 04:06:25;;;;;;;2.80;2.60;;;20.70;64.10;;;;;;4991567;28;21472;-69
2022/11/14 04:09:12;;;;;;;4.03;2.63;;;20.70;64.10;;;;;;4989069;28;20605;-69
2022/11/14 04:11:58;;;;;;;2.50;2.30;;;20.70;64.10;;;;;;4991562;28;20437;-68
2022/11/14 04:14:45;;;;;;;3.50;3.30;;;20.70;64.10;;;;;;4989037;28;20479;-68
2022/11/14 04:17:33;;;;;;;2.67;2.47;;;20.70;64.10;;;;;;4992031;28;20501;-70
2022/11/14 04:20:25;;;;;;;2.70;2.50;;;20.70;64.10;;;;;;4991084;28;20430;-69
2022/11/14 04:23:12;;;;;;;3.07;2.87;;;20.70;64.10;;;;;;4989683;28;20459;-69
2022/11/14 04:25:58;;;;;;;2.27;2.10;;;20.70;64.10;;;;;;4989066;28;20550;-69
2022/11/14 04:28:45;;;;;;;2.30;2.20;;;20.70;64.10;;;;;;4991416;28;20981;-70
2022/11/14 04:31:32;;;;;;;2.67;2.47;;;20.70;64.10;;;;;;4989333;28;20455;-69
2022/11/14 04:34:20;;;;;;;3.10;2.80;;;20.70;64.00;;;;;;4982920;28;20477;-70
2022/11/14 04:37:06;;;;;;;2.63;2.43;;;20.70;64.00;;;;;;4991936;28;20880;-69
2022/11/14 04:39:57;;;;;;;3.07;2.87;;;20.70;64.10;;;;;;4991640;28;20454;-69
2022/11/14 04:42:43;;;;;;;3.17;2.40;;;20.70;64.10;;;;;;4989036;28;20553;-69
2022/11/14 04:45:30;;;;;;;2.40;2.30;;;20.70;64.10;;;;;;4991987;28;20456;-70
2022/11/14 04:48:17;;;;;;;2.60;2.40;;;20.70;64.10;;;;;;4982847;28;21288;-69
2022/11/14 04:51:05;;;;;;;2.43;2.23;;;20.70;64.10;;;;;;4990873;28;20968;-69
2022/11/14 04:53:52;;;;;;;2.80;2.60;;;20.60;64.10;;;;;;4984639;28;20481;-69
2022/11/14 04:56:38;;;;;;;2.60;2.47;;;20.70;64.10;;;;;;4990867;28;20802;-68
2022/11/14 04:59:25;;;;;;;2.60;2.40;;;20.70;64.10;;;;;;4978588;28;20451;-69
2022/11/14 05:02:12;;;;;;;2.60;2.40;;;20.70;64.10;;;;;;4991204;28;20445;-68
2022/11/14 05:04:58;;;;;;;2.90;2.70;;;20.70;64.10;;;;;;4990497;28;20816;-69
2022/11/14 05:07:46;;;;;;;2.97;2.67;;;20.60;64.10;;;;;;4983632;28;20527;-69
2022/11/14 05:10:33;;;;;;;2.60;2.40;;;20.70;64.10;;;;;;4983331;28;20448;-68
2022/11/14 05:13:20;;;;;;;2.97;2.77;;;20.70;64.10;;;;;;4982455;28;20436;-68
2022/11/14 05:16:07;;;;;;;2.50;2.30;;;20.70;64.10;;;;;;4984509;28;20451;-68
2022/11/14 05:18:53;;;;;;;2.40;2.30;;;20.70;64.10;;;;;;4985781;28;20456;-68
2022/11/14 05:21:40;;;;;;;3.80;3.50;;;20.70;64.10;;;;;;4985122;28;20467;-68
2022/11/14 05:24:28;;;;;;;2.97;2.67;;;20.70;64.10;;;;;;4985639;28;20488;-66
2022/11/14 05:27:14;;;;;;;2.63;2.43;;;20.70;64.10;;;;;;4985972;28;20445;-69
2022/11/14 05:30:01;;;;;;;2.90;2.70;;;20.60;64.10;;;;;;4985613;28;20939;-73
2022/11/14 05:32:47;;;;;;;2.80;2.60;;;20.60;64.10;;;;;;4980396;28;20569;-73
2022/11/14 05:35:34;;;;;;;3.43;3.00;;;20.60;64.30;;;;;;4984657;28;20558;-69
2022/11/14 05:38:20;;;;;;;3.60;3.10;;;20.60;64.30;;;;;;4984206;28;20493;-71
2022/11/14 05:41:11;;;;;;;2.50;2.30;;;20.70;64.50;;;;;;4985511;28;20984;-73
2022/11/14 05:43:58;;;;;;;3.00;2.80;;;20.60;64.70;;;;;;4991012;28;20503;-72
2022/11/14 05:46:44;;;;;;;2.50;2.30;;;20.70;64.80;;;;;;4987015;28;20450;-74
2022/11/14 05:49:31;;;;;;;3.83;2.50;;;20.60;64.80;;;;;;4985280;28;20451;-73
2022/11/14 05:52:17;;;;;;;2.50;2.30;;;20.60;64.90;;;;;;4983386;28;20452;-70
2022/11/14 05:55:04;;;;;;;2.67;2.47;;;20.60;64.90;;;;;;4985068;28;20566;-73
2022/11/14 05:57:52;;;;;;;2.63;2.43;;;20.60;64.90;;;;;;4979893;28;20455;-73
2022/11/14 06:00:39;;;;;;;2.73;2.53;;;20.70;64.90;;;;;;4982127;28;20591;-73
2022/11/14 06:03:38;;;;;;;3.30;2.73;;;20.60;65.10;;;;;;4985506;28;20800;-73
2022/11/14 06:06:24;;;;;;;2.67;2.40;;;20.60;65.20;;;;;;4983441;28;20878;-73
2022/11/14 06:09:11;;;;;;;3.93;2.37;;;20.60;65.30;;;;;;4983689;28;20463;-72
2022/11/14 06:11:58;;;;;;;2.50;2.30;;;20.60;65.40;;;;;;4990059;28;20489;-70
2022/11/14 06:14:45;;;;;;;2.63;2.40;;;20.60;65.40;;;;;;4987176;28;20489;-72
2022/11/14 06:17:32;;;;;;;4.47;2.43;;;20.60;65.40;;;;;;4990433;28;20444;-72
2022/11/14 06:20:19;;;;;;;3.00;2.70;;;20.60;65.50;;;;;;4993525;28;20531;-71
2022/11/14 06:23:05;;;;;;;2.20;2.10;;;20.60;65.50;;;;;;4991560;28;20558;-72
2022/11/14 06:25:52;;;;;;;3.00;2.80;;;20.60;65.60;;;;;;4988239;28;20471;-72
2022/11/14 06:28:38;;;;;;;2.73;2.53;;;20.60;65.60;;;;;;4992901;28;20535;-71
2022/11/14 06:31:27;;;;;;;4.43;2.73;;;20.60;65.60;;;;;;4981742;28;20853;-73
2022/11/14 06:34:13;;;;;;;3.87;3.40;;;20.60;65.50;;;;;;4986164;28;20566;-72
2022/11/14 06:37:00;;;;;;;3.10;2.80;;;20.60;65.60;;;;;;4989668;28;20451;-72
2022/11/14 06:39:46;;;;;;;3.87;3.10;;;20.60;65.50;;;;;;4988144;28;20463;-73
2022/11/14 06:42:33;;;;;;;4.60;3.23;;;20.60;65.40;;;;;;4982762;28;21038;-72
2022/11/14 06:45:19;;;;;;;4.13;3.30;;;20.60;65.50;;;;;;4991158;28;20503;-70
2022/11/14 06:48:07;;;;;;;4.23;3.63;;;20.60;65.60;;;;;;4989952;28;20484;-71
2022/11/14 06:50:55;;;;;;;6.33;3.87;;;20.60;65.70;;;;;;4986904;28;20451;-72
2022/11/14 06:53:42;;;;;;;7.20;4.10;;;20.60;65.70;;;;;;4980489;28;20443;-73
2022/11/14 06:56:29;;;;;;;3.40;3.10;;;20.60;65.70;;;;;;4983817;28;20479;-72
2022/11/14 06:59:16;;;;;;;3.67;3.33;;;20.60;65.60;;;;;;4978554;28;20555;-72
2022/11/14 07:02:02;;;;;;;6.13;3.40;;;20.60;65.50;;;;;;4984431;28;20439;-73
2022/11/14 07:04:50;;;;;;;4.87;3.93;;;20.60;65.40;;;;;;4985630;28;20544;-72
2022/11/14 07:07:37;;;;;;;3.93;3.17;;;20.60;65.30;;;;;;4987635;28;20959;-71
2022/11/14 07:10:24;;;;;;;4.93;3.60;;;20.60;65.30;;;;;;4984267;28;20443;-73
2022/11/14 07:13:11;;;;;;;4.10;3.23;;;20.70;65.40;;;;;;4990259;28;20451;-73
2022/11/14 07:15:57;;;;;;;3.73;3.43;;;20.70;65.30;;;;;;4992734;28;20533;-73
2022/11/14 07:18:44;;;;;;;3.70;3.33;;;20.70;65.30;;;;;;4992426;28;20459;-74
2022/11/14 07:21:34;;;;;;;3.30;3.00;;;20.70;65.20;;;;;;4987130;28;20460;-73
2022/11/14 07:24:20;;;;;;;3.70;3.40;;;20.70;65.20;;;;;;4982601;28;20946;-73
2022/11/14 07:27:10;;;;;;;3.70;3.40;;;20.70;65.20;;;;;;4982183;28;20444;-73
2022/11/14 07:29:57;;;;;;;4.03;3.50;;;20.70;65.20;;;;;;4991449;28;20458;-73
2022/11/14 07:32:44;;;;;;;3.50;3.20;;;20.70;65.10;;;;;;4982085;28;20976;-73
2022/11/14 07:35:30;;;;;;;7.00;4.17;;;20.70;65.10;;;;;;4986601;28;20549;-76
2022/11/14 07:38:18;;;;;;;3.43;3.13;;;20.70;65.30;;;;;;4990566;28;20452;-80
2022/11/14 07:41:07;;;;;;;4.30;3.90;;;20.70;66.20;;;;;;4984164;28;20601;-76
2022/11/14 07:43:54;;;;;;;3.00;2.70;;;20.70;66.70;;;;;;4989778;28;20841;-77
2022/11/14 07:46:40;;;;;;;5.00;3.43;;;20.80;66.80;;;;;;4985665;28;20457;-77
2022/11/14 07:49:27;;;;;;;6.93;3.90;;;20.80;66.90;;;;;;4987880;28;20494;-80
2022/11/14 07:52:13;;;;;;;3.37;2.80;;;20.80;66.80;;;;;;4991002;28;20969;-76
2022/11/14 07:55:01;;;;;;;3.90;3.50;;;20.80;66.80;;;;;;4997267;28;20464;-82
2022/11/14 07:57:48;;;;;;;4.73;3.63;;;20.80;66.80;;;;;;4975164;28;20499;-81
2022/11/14 08:00:35;;;;;;;3.57;3.20;;;20.90;66.80;;;;;;4984354;28;20889;-83
2022/11/14 08:03:22;;;;;;;2.80;2.50;;;20.90;66.80;;;;;;4990183;28;20457;-75
2022/11/14 08:06:10;;;;;;;7.27;3.27;;;20.90;66.80;;;;;;4991985;28;20464;-81
2022/11/14 08:08:57;;;;;;;4.90;3.27;;;20.90;66.80;;;;;;4992069;28;20440;-80
2022/11/14 08:11:48;;;;;;;3.87;3.57;;;20.90;66.80;;;;;;4986526;28;20467;-80
2022/11/14 08:14:34;;;;;;;5.93;3.00;;;21.00;66.70;;;;;;4989385;28;20443;-82
2022/11/14 08:17:21;;;;;;;4.20;3.30;;;21.00;66.60;;;;;;4991317;28;20791;-80
2022/11/14 08:20:09;;;;;;;3.90;3.50;;;21.00;66.60;;;;;;4992889;28;20452;-78
2022/11/14 08:23:02;;;;;;;5.13;3.33;;;21.00;66.50;;;;;;4983379;28;20452;-74
2022/11/14 08:25:49;;;;;;;4.13;3.73;;;21.00;66.50;;;;;;4992319;28;20610;-73
2022/11/14 08:28:37;;;;;;;3.67;3.37;;;21.10;66.50;;;;;;4991778;28;20465;-79
2022/11/14 08:31:24;;;;;;;3.33;3.03;;;21.10;66.50;;;;;;4987200;28;20512;-78
2022/11/14 08:34:11;;;;;;;5.10;3.00;;;21.10;66.50;;;;;;4991596;28;20458;-82
2022/11/14 08:36:58;;;;;;;3.20;2.90;;;21.10;66.40;;;;;;4980461;28;20481;-75
2022/11/14 08:39:44;;;;;;;4.60;2.83;;;21.10;66.50;;;;;;4984694;28;20451;-75
2022/11/14 08:42:31;;;;;;;4.47;3.27;;;21.10;66.40;;;;;;4985276;28;20603;-75
2022/11/14 08:45:19;;;;;;;5.30;3.20;;;21.10;66.40;;;;;;4990060;28;20864;-80
2022/11/14 08:48:06;;;;;;;5.53;3.00;;;21.20;66.30;;;;;;4990214;28;20616;-80
2022/11/14 08:50:53;;;;;;;3.07;2.77;;;21.20;66.30;;;;;;4988773;28;20461;-80
2022/11/14 08:53:39;;;;;;;4.83;3.27;;;21.20;66.20;;;;;;4990417;28;20463;-75
2022/11/14 08:56:26;;;;;;;3.30;3.00;;;21.20;66.20;;;;;;4989972;28;20467;-81
2022/11/14 08:59:12;;;;;;;3.30;2.97;;;21.20;66.20;;;;;;4985130;28;20588;-80
2022/11/14 09:02:00;;;;;;;3.47;3.17;;;21.20;66.20;;;;;;4983882;28;20452;-75
2022/11/14 09:04:47;;;;;;;3.80;3.27;;;21.20;66.10;;;;;;4988934;28;20796;-79
2022/11/14 09:07:34;;;;;;;3.20;2.90;;;21.30;66.10;;;;;;4983757;28;20543;-76
2022/11/14 09:10:21;;;;;;;3.17;2.97;;;21.30;66.00;;;;;;4982600;28;20588;-77
2022/11/14 09:13:08;;;;;;;3.60;3.30;;;21.30;66.00;;;;;;4986045;28;20438;-76
2022/11/14 09:15:54;;;;;;;3.70;2.70;;;21.30;66.00;;;;;;4989106;28;20475;-72
2022/11/14 09:18:42;;;;;;;4.80;3.20;;;21.40;65.80;;;;;;4989407;28;20456;-78
2022/11/14 09:21:29;;;;;;;5.03;3.17;;;21.40;65.80;;;;;;4987219;28;20576;-78
2022/11/14 09:24:15;;;;;;;3.30;3.00;;;21.40;65.70;;;;;;4985343;28;20546;-76
2022/11/14 09:27:03;;;;;;;3.67;2.90;;;21.50;65.60;;;;;;4988558;28;20539;-80
2022/11/14 09:29:50;;;;;;;2.93;2.73;;;21.50;65.60;;;;;;4986920;28;21220;-72
2022/11/14 09:32:37;;;;;;;3.30;2.70;;;21.60;65.50;;;;;;4983536;28;20452;-80
2022/11/14 09:35:25;;;;;;;4.10;3.10;;;21.60;65.50;;;;;;4991177;28;20444;-78
2022/11/14 09:38:12;;;;;;;3.47;3.10;;;21.60;65.40;;;;;;4998568;28;20464;-79
2022/11/14 09:41:09;;;;;;;3.30;3.03;;;21.60;65.40;;;;;;4993883;28;20452;-81
2022/11/14 09:44:26;;;;;;;3.33;3.03;;;21.60;65.40;;;;;;4990777;28;20527;-81
2022/11/14 09:47:20;;;;;;;4.40;3.17;;;21.60;65.40;;;;;;4992850;28;20911;-80
2022/11/14 09:50:12;;;;;;;3.73;2.77;;;21.70;65.20;;;;;;4992190;28;20491;-80
2022/11/14 09:53:07;;;;;;;3.27;3.00;;;21.70;65.10;;;;;;4989733;28;20963;-73
2022/11/14 09:55:54;;;;;;;3.30;3.00;;;21.80;65.10;;;;;;4993461;28;20864;-83
2022/11/14 09:58:41;;;;;;;3.17;2.80;;;21.80;65.10;;;;;;4989923;28;20479;-78
2022/11/14 10:01:47;;;;;;;3.53;3.13;;;21.80;65.00;;;;;;4981518;28;20450;-77
2022/11/14 10:04:48;;;;;;;3.20;3.00;;;21.90;64.90;;;;;;4990275;28;20461;-76
2022/11/14 10:07:46;;;;;;;3.30;2.77;;;21.90;64.90;;;;;;4980008;28;20445;-78
2022/11/14 10:10:48;;;;;;;4.30;3.60;;;22.00;64.80;;;;;;4990585;28;20438;-77
2022/11/14 10:14:22;;;;;;;2.77;2.57;;;22.10;64.60;;;;;;4990041;28;20484;-81
2022/11/14 10:17:23;;;;;;;3.07;2.83;;;22.10;64.50;;;;;;4986939;28;20484;-80
2022/11/14 10:20:18;;;;;;;2.87;2.67;;;22.10;64.40;;;;;;4993550;28;20521;-75
2022/11/14 10:23:31;;;;;;;4.03;3.67;;;22.20;63.90;;;;;;4983437;28;21334;-76
2022/11/14 10:26:28;;;;;;;2.83;2.63;;;22.20;63.90;;;;;;4987700;28;20906;-76
2022/11/14 10:29:49;;;;;;;3.20;2.53;;;22.30;63.80;;;;;;4996162;28;20490;-75
2022/11/14 10:32:53;;;;;;;3.30;3.00;;;22.30;63.70;;;;;;4987762;28;20929;-76
2022/11/14 10:35:43;;;;;;;3.43;3.13;;;22.30;63.70;;;;;;4992292;28;20830;-76
2022/11/14 10:38:33;;;;;;;4.00;2.80;;;22.20;63.90;;;;;;4989997;28;20441;-74
2022/11/14 10:41:25;;;;;;;3.80;3.47;;;22.20;63.90;;;;;;4987638;28;20449;-73
2022/11/14 10:44:36;;;;;;;3.30;3.00;;;22.20;63.90;;;;;;4989670;28;20609;-80
2022/11/14 10:47:25;;;;;;;3.53;3.23;;;22.20;63.90;;;;;;4989255;28;20477;-74
2022/11/14 10:50:19;;;;;;;3.73;2.60;;;22.20;64.10;;;;;;4991084;28;20457;-75
2022/11/14 10:53:18;;;;;;;3.57;3.27;;;22.10;64.10;;;;;;4991093;28;20477;-76
2022/11/14 10:56:06;;;;;;;3.10;2.80;;;22.10;64.20;;;;;;4987107;28;20441;-76
2022/11/14 10:58:54;;;;;;;3.40;3.10;;;22.10;64.20;;;;;;4989871;28;20435;-71
2022/11/14 11:01:42;;;;;;;2.80;2.60;;;22.10;64.30;;;;;;4992503;28;20469;-72
2022/11/14 11:04:31;;;;;;;4.00;3.70;;;22.10;64.30;;;;;;4991982;28;20504;-77
2022/11/14 11:13:35;;;;;;;3.47;3.27;;;22.10;64.40;;;;;;4990913;28;20449;-77
2022/11/14 11:16:24;;;;;;;3.37;3.07;;;22.10;64.40;;;;;;4988545;28;20488;-76
2022/11/14 11:19:23;;;;;;;6.50;3.07;;;22.10;64.30;;;;;;4989643;28;20557;-77
2022/11/14 11:22:35;;;;;;;3.27;2.97;;;22.10;64.40;;;;;;4987603;28;20618;-76
2022/11/14 11:25:27;;;;;;;3.03;2.70;;;22.20;64.30;;;;;;4990832;28;20880;-77
2022/11/14 11:28:16;;;;;;;2.80;2.60;;;22.20;64.20;;;;;;4988878;28;21021;-79
2022/11/14 11:31:05;;;;;;;4.33;2.90;;;22.20;64.20;;;;;;4986474;28;20445;-79
2022/11/14 11:33:53;;;;;;;2.93;2.73;;;22.20;64.10;;;;;;4982823;28;20452;-77
2022/11/14 11:36:45;;;;;;;3.00;2.80;;;22.20;64.00;;;;;;4983143;28;20516;-77
2022/11/14 11:39:35;;;;;;;3.73;2.77;;;22.20;64.00;;;;;;4987228;28;20448;-77
2022/11/14 11:42:31;;;;;;;3.10;2.80;;;22.20;64.00;;;;;;4985677;28;20519;-77
2022/11/14 11:45:39;;;;;;;2.90;2.70;;;22.30;64.00;;;;;;4992493;28;20457;-74
2022/11/14 11:48:33;;;;;;;3.70;2.80;;;22.40;63.60;;;;;;4988854;28;20501;-78
2022/11/14 11:51:25;;;;;;;2.80;2.60;;;22.50;63.50;;;;;;4989615;28;20805;-76
2022/11/14 11:54:16;;;;;;;2.47;2.37;;;22.60;63.30;;;;;;4986090;28;20545;-78
2022/11/14 11:57:11;;;;;;;3.33;2.50;;;22.60;63.20;;;;;;4979943;28;20471;-78
2022/11/14 12:00:14;;;;;;;2.70;2.50;;;22.60;63.10;;;;;;4986098;28;20969;-78
2022/11/14 12:03:01;;;;;;;2.97;2.77;;;22.50;63.10;;;;;;4991560;28;20449;-78
2022/11/14 12:05:58;;;;;;;3.00;2.70;;;22.50;63.20;;;;;;4986018;28;20934;-78
2022/11/14 12:09:02;;;;;;;2.77;2.60;;;22.60;63.20;;;;;;4988250;28;20447;-74
2022/11/14 12:11:52;;;;;;;5.20;3.90;;;22.60;63.10;;;;;;4987227;28;20445;-76
2022/11/14 12:14:55;;;;;;;6.60;2.67;;;22.60;63.10;;;;;;4988716;28;20496;-77
2022/11/14 12:18:05;;;;;;;5.93;4.10;;;22.50;63.20;;;;;;4984423;28;20485;-77
2022/11/14 12:21:10;;;;;;;5.53;3.77;;;22.50;63.30;;;;;;4985199;28;20465;-77
2022/11/14 12:24:30;;;;;;;7.00;4.67;;;22.50;63.60;;;;;;4984730;28;20898;-74
2022/11/14 12:27:39;;;;;;;11.60;4.53;;;22.50;63.60;;;;;;4963070;28;20491;-75
2022/11/14 12:30:27;;;;;;;8.83;5.20;;;22.50;63.60;;;;;;4984423;28;20653;-76
2022/11/14 12:33:21;;;;;;;9.70;5.67;;;22.40;63.70;;;;;;4984614;28;20485;-77
2022/11/14 12:36:11;;;;;;;11.13;5.73;;;22.40;63.90;;;;;;4981039;28;20457;-77
2022/11/14 12:38:59;;;;;;;9.43;5.60;;;22.30;64.20;;;;;;4985492;28;21036;-76
2022/11/14 12:41:48;;;;;;;11.00;6.27;;;22.30;64.30;;;;;;4988725;28;20461;-77
2022/11/14 12:44:37;;;;;;;15.50;6.70;;;22.20;64.50;;;;;;4986495;28;20481;-77
2022/11/14 12:47:25;;;;;;;10.60;5.77;;;22.20;64.60;;;;;;4979899;28;20527;-77
2022/11/14 12:50:28;;;;;;;10.27;5.90;;;22.10;64.70;;;;;;4983217;28;20582;-76
2022/11/14 12:53:42;;;;;;;11.17;6.00;;;22.10;64.80;;;;;;4973396;28;20469;-73
2022/11/14 12:56:58;;;;;;;18.40;5.83;;;22.10;65.20;;;;;;4986075;28;20813;-76
2022/11/14 12:59:56;;;;;;;10.00;7.07;;;22.10;65.40;;;;;;4982075;28;20493;-76
2022/11/14 13:03:10;;;;;;;8.20;6.43;;;22.10;65.40;;;;;;4987249;28;20466;-75
2022/11/14 13:06:03;;;;;;;9.00;5.90;;;22.10;65.40;;;;;;4981196;28;20593;-75
2022/11/14 13:09:03;;;;;;;8.70;5.17;;;22.20;65.40;;;;;;4986689;28;20813;-67
2022/11/14 13:25:05;;;;;;;6.87;5.50;;;22.50;64.90;;;;;;4989226;28;20886;-66
2022/11/14 13:27:54;;;;;;;11.47;5.63;;;22.50;64.90;;;;;;4985191;28;20594;-68
2022/11/14 13:31:19;;;;;;;11.40;6.07;;;22.50;65.00;;;;;;4987480;28;20465;-68
2022/11/14 13:34:36;;;;;;;9.27;5.53;;;22.50;65.00;;;;;;4988560;28;20457;-67
2022/11/14 13:37:40;;;;;;;6.40;5.17;;;22.50;65.00;;;;;;4987519;28;20473;-66
2022/11/14 13:40:33;;;;;;;8.23;4.70;;;22.50;65.10;;;;;;4984349;28;20533;-68
2022/11/14 13:43:26;;;;;;;10.07;5.40;;;22.50;65.10;;;;;;4976811;28;20789;-68
2022/11/14 13:46:33;;;;;;;9.53;6.30;;;22.50;65.10;;;;;;4982639;28;20553;-67
2022/11/14 13:49:39;;;;;;;7.13;5.00;;;22.50;65.00;;;;;;4978233;28;20494;-69
2022/11/14 13:52:29;;;;;;;7.00;4.47;;;22.50;65.10;;;;;;4986982;28;20430;-71
2022/11/14 13:55:21;;;;;;;11.53;4.80;;;22.50;65.20;;;;;;4985295;28;20438;-70
2022/11/14 13:58:22;;;;;;;7.03;4.70;;;22.50;65.20;;;;;;4985346;28;20490;-68
2022/11/14 14:01:22;;;;;;;6.73;5.27;;;22.60;65.10;;;;;;4988325;28;20454;-71
2022/11/14 14:04:23;;;;;;;8.93;5.10;;;22.60;65.10;;;;;;4986510;28;20461;-72
2022/11/14 14:07:22;;;;;;;7.70;4.60;;;22.60;65.00;;;;;;4988661;28;20442;-68
2022/11/14 14:10:25;;;;;;;5.30;4.23;;;22.60;65.20;;;;;;4988901;28;20476;-72
2022/11/14 14:13:28;;;;;;;8.00;4.63;;;22.60;65.10;;;;;;4987976;28;20444;-68
2022/11/14 14:16:25;;;;;;;5.53;4.70;;;22.60;65.20;;;;;;4987618;28;20463;-68
2022/11/14 14:19:18;;;;;;;8.30;4.80;;;22.60;65.20;;;;;;4984119;28;20576;-69
2022/11/14 14:22:19;;;;;;;6.40;4.67;;;22.60;65.20;;;;;;4987896;28;20594;-68
2022/11/14 14:25:15;;;;;;;5.30;4.80;;;22.60;65.30;;;;;;4983621;28;20458;-69
2022/11/14 14:28:09;;;;;;;7.90;4.20;;;22.60;65.30;;;;;;4988017;28;20477;-72
2022/11/14 14:31:12;;;;;;;5.47;3.87;;;22.60;65.30;;;;;;4987658;28;20470;-68
2022/11/14 14:34:01;;;;;;;5.47;4.40;;;22.60;65.30;;;;;;4988251;28;20451;-73
2022/11/14 14:36:52;;;;;;;6.40;4.87;;;22.60;65.40;;;;;;4986685;28;20503;-71
2022/11/14 14:39:39;;;;;;;5.80;4.13;;;22.60;65.50;;;;;;4983733;28;22659;-71
2022/11/14 14:42:27;;;;;;;4.73;4.00;;;22.60;65.50;;;;;;4983932;28;20482;-71
2022/11/14 14:45:22;;;;;;;5.53;4.73;;;22.60;65.50;;;;;;4984667;28;20485;-73
2022/11/14 14:48:14;;;;;;;4.30;3.90;;;22.50;65.60;;;;;;4987736;28;20565;-68
2022/11/14 14:51:03;;;;;;;7.10;4.77;;;22.50;65.50;;;;;;4987188;28;20465;-71
2022/11/14 14:53:52;;;;;;;4.60;3.70;;;22.50;65.60;;;;;;4985512;28;20552;-70
2022/11/14 14:56:39;;;;;;;5.70;3.67;;;22.50;65.60;;;;;;4985176;28;20853;-69
2022/11/14 14:59:27;;;;;;;4.00;3.70;;;22.50;65.70;;;;;;4990650;28;20489;-77
2022/11/14 15:02:17;;;;;;;5.50;3.40;;;22.50;65.80;;;;;;4988058;28;20450;-74
2022/11/14 15:05:05;;;;;;;4.57;3.80;;;22.50;65.80;;;;;;4989058;28;20453;-78